createdAt,value
2019-02-04T00:00:16.861Z,524.6
2019-02-04T00:01:18.915Z,524.5
2019-02-04T00:02:21.062Z,523.9
2019-02-04T00:03:23.225Z,524.2
2019-02-04T00:04:25.375Z,524.1
2019-02-04T00:05:27.942Z,524.1
2019-02-04T00:06:30.377Z,524
2019-02-04T00:07:32.807Z,523.7
2019-02-04T00:08:35.231Z,523.9
2019-02-04T00:09:37.655Z,523.6
2019-02-04T00:10:40.084Z,523.8
2019-02-04T00:11:43.511Z,523.7
2019-02-04T00:12:46.163Z,523.4
2019-02-04T00:13:48.775Z,523.4
2019-02-04T00:14:51.215Z,523.5
2019-02-04T00:15:53.667Z,523.3
2019-02-04T00:16:56.091Z,523.5
2019-02-04T00:17:58.275Z,523.1
2019-02-04T00:19:00.695Z,523.2
2019-02-04T00:20:02.875Z,522.8
2019-02-04T00:21:05.139Z,523.2
2019-02-04T00:22:07.305Z,522.7
2019-02-04T00:23:10.715Z,522.5
2019-02-04T00:24:13.484Z,522.8
2019-02-04T00:25:15.637Z,522.7
2019-02-04T00:26:17.796Z,522.3
2019-02-04T00:27:20.219Z,522.4
2019-02-04T00:28:22.644Z,521.9
2019-02-04T00:29:24.764Z,522
2019-02-04T00:30:26.903Z,522.3
2019-02-04T00:31:28.759Z,521.7
2019-02-04T00:32:30.929Z,522
2019-02-04T00:33:32.795Z,521.8
2019-02-04T00:34:36.467Z,521.7
2019-02-04T00:35:39.062Z,522
2019-02-04T00:36:41.227Z,521.5
2019-02-04T00:37:43.465Z,521.6
2019-02-04T00:38:45.618Z,521.6
2019-02-04T00:39:48.055Z,521.7
2019-02-04T00:40:50.484Z,521.6
2019-02-04T00:41:52.643Z,521.7
2019-02-04T00:42:55.063Z,521.5
2019-02-04T00:43:57.210Z,521.5
2019-02-04T00:44:59.332Z,521.2
2019-02-04T00:46:02.676Z,521
2019-02-04T00:47:05.420Z,521.2
2019-02-04T00:48:07.589Z,520.6
2019-02-04T00:49:10.022Z,521
2019-02-04T00:50:12.461Z,520.7
2019-02-04T00:51:14.899Z,520.7
2019-02-04T00:52:17.316Z,520.7
2019-02-04T00:53:19.742Z,520.4
2019-02-04T00:54:21.991Z,520.3
2019-02-04T00:55:24.143Z,520.3
2019-02-04T00:56:27.094Z,520.2
2019-02-04T00:57:29.654Z,519.8
2019-02-04T00:58:32.419Z,520
2019-02-04T00:59:34.860Z,519.9
2019-02-04T01:00:37.002Z,519.6
2019-02-04T01:01:39.161Z,520.1
2019-02-04T01:02:41.606Z,519.4
2019-02-04T01:03:44.040Z,519.5
2019-02-04T01:04:46.461Z,519.3
2019-02-04T01:05:48.891Z,519.1
2019-02-04T01:06:51.140Z,518.9
2019-02-04T01:07:54.134Z,518.5
2019-02-04T01:08:56.518Z,518.7
2019-02-04T01:09:59.221Z,518.3
2019-02-04T01:11:01.743Z,518.2
2019-02-04T01:12:04.283Z,518.4
2019-02-04T01:13:06.712Z,518.3
2019-02-04T01:14:08.873Z,518.2
2019-02-04T01:15:11.043Z,517.7
2019-02-04T01:16:13.193Z,517.8
2019-02-04T01:17:15.617Z,517.5
2019-02-04T01:18:17.785Z,517.2
2019-02-04T01:19:20.687Z,517.6
2019-02-04T01:20:23.455Z,517.4
2019-02-04T01:21:26.239Z,517.8
2019-02-04T01:22:28.662Z,517.6
2019-02-04T01:23:30.826Z,517.4
2019-02-04T01:24:32.978Z,517.7
2019-02-04T01:25:35.401Z,517.4
2019-02-04T01:26:37.835Z,517.4
2019-02-04T01:27:39.983Z,516.9
2019-02-04T01:28:42.154Z,517
2019-02-04T01:29:44.675Z,516.8
2019-02-04T01:30:46.625Z,516.9
2019-02-04T01:31:49.867Z,516.7
2019-02-04T01:32:52.364Z,516.8
2019-02-04T01:33:54.796Z,516.9
2019-02-04T01:34:57.227Z,516.7
2019-02-04T01:35:59.385Z,516.5
2019-02-04T01:37:01.575Z,516.4
2019-02-04T01:38:03.995Z,516.7
2019-02-04T01:39:06.420Z,516.8
2019-02-04T01:40:08.853Z,516.4
2019-02-04T01:41:11.035Z,516.5
2019-02-04T01:42:13.783Z,516.2
2019-02-04T01:43:17.163Z,516.8
2019-02-04T01:44:19.870Z,516.6
2019-02-04T01:45:21.838Z,516.5
2019-02-04T01:46:24.007Z,516
2019-02-04T01:47:25.889Z,516.1
2019-02-04T01:48:28.313Z,516.2
2019-02-04T01:49:30.747Z,516.2
2019-02-04T01:50:32.645Z,516
2019-02-04T01:51:35.082Z,516.1
2019-02-04T01:52:37.518Z,515.8
2019-02-04T01:53:40.334Z,515.8
2019-02-04T01:54:43.701Z,515.8
2019-02-04T01:55:46.477Z,515.5
2019-02-04T01:56:48.905Z,515.7
2019-02-04T01:57:51.333Z,515.4
2019-02-04T01:58:53.490Z,515.2
2019-02-04T01:59:55.934Z,515.1
2019-02-04T02:00:58.076Z,515
2019-02-04T02:02:00.231Z,515.1
2019-02-04T02:03:02.667Z,515
2019-02-04T02:04:05.102Z,514.9
2019-02-04T02:05:07.803Z,514.9
2019-02-04T02:06:11.333Z,514.7
2019-02-04T02:07:13.987Z,514.7
2019-02-04T02:08:15.868Z,514.6
2019-02-04T02:09:18.298Z,514.7
2019-02-04T02:10:20.437Z,514.5
2019-02-04T02:11:22.318Z,514.6
2019-02-04T02:12:24.751Z,513.9
2019-02-04T02:13:26.615Z,514.1
2019-02-04T02:14:29.033Z,514.4
2019-02-04T02:15:31.185Z,514
2019-02-04T02:16:33.334Z,514
2019-02-04T02:17:37.002Z,514
2019-02-04T02:18:39.483Z,514.6
2019-02-04T02:19:41.923Z,513.8
2019-02-04T02:20:43.811Z,514.3
2019-02-04T02:21:45.692Z,513.7
2019-02-04T02:22:48.122Z,514
2019-02-04T02:23:50.301Z,514.1
2019-02-04T02:24:52.738Z,514
2019-02-04T02:25:55.180Z,514.1
2019-02-04T02:26:57.334Z,514
2019-02-04T02:27:59.475Z,514.1
2019-02-04T02:29:02.967Z,514
2019-02-04T02:30:05.671Z,514
2019-02-04T02:31:07.824Z,513.9
2019-02-04T02:32:10.248Z,514.1
2019-02-04T02:33:12.687Z,513.7
2019-02-04T02:34:15.104Z,514.1
2019-02-04T02:35:17.324Z,514.2
2019-02-04T02:36:19.463Z,514
2019-02-04T02:37:21.636Z,514.2
2019-02-04T02:38:23.543Z,514.5
2019-02-04T02:39:26.962Z,514.7
2019-02-04T02:40:29.664Z,514.7
2019-02-04T02:41:32.184Z,514.4
2019-02-04T02:42:34.609Z,514.2
2019-02-04T02:43:37.043Z,514.1
2019-02-04T02:44:39.475Z,514.7
2019-02-04T02:45:41.899Z,514.6
2019-02-04T02:46:44.332Z,514.5
2019-02-04T02:47:46.213Z,514.6
2019-02-04T02:48:48.408Z,514.2
2019-02-04T02:49:50.833Z,514.4
2019-02-04T02:50:54.062Z,514.4
2019-02-04T02:51:56.238Z,514.1
2019-02-04T02:52:58.829Z,514.3
2019-02-04T02:54:01.256Z,514.4
2019-02-04T02:55:03.416Z,514.3
2019-02-04T02:56:05.856Z,514.3
2019-02-04T02:57:08.271Z,514.1
2019-02-04T02:58:10.434Z,514.1
2019-02-04T02:59:12.590Z,514.2
2019-02-04T03:00:15.125Z,514
2019-02-04T03:01:17.277Z,514.2
2019-02-04T03:02:20.948Z,514.1
2019-02-04T03:03:23.533Z,513.9
2019-02-04T03:04:25.972Z,514
2019-02-04T03:05:28.130Z,514.1
2019-02-04T03:06:30.293Z,513.8
2019-02-04T03:07:31.914Z,514.2
2019-02-04T03:08:34.063Z,514.2
2019-02-04T03:09:36.489Z,513.7
2019-02-04T03:10:38.947Z,513.9
2019-02-04T03:11:41.419Z,514.1
2019-02-04T03:12:43.620Z,513.9
2019-02-04T03:13:47.005Z,513.8
2019-02-04T03:14:49.471Z,513.5
2019-02-04T03:15:51.895Z,513.7
2019-02-04T03:16:54.044Z,513.5
2019-02-04T03:17:56.463Z,513.5
2019-02-04T03:18:58.606Z,513.8
2019-02-04T03:20:01.123Z,513.7
2019-02-04T03:21:03.561Z,513.5
2019-02-04T03:22:05.984Z,513.6
2019-02-04T03:23:08.120Z,513.7
2019-02-04T03:24:10.271Z,513.2
2019-02-04T03:25:13.739Z,513.3
2019-02-04T03:26:15.950Z,513.1
2019-02-04T03:27:18.105Z,513.3
2019-02-04T03:28:20.267Z,512.9
2019-02-04T03:29:22.695Z,512.7
2019-02-04T03:30:24.954Z,512.8
2019-02-04T03:31:27.413Z,513.2
2019-02-04T03:32:29.589Z,512.8
2019-02-04T03:33:32.305Z,513.1
2019-02-04T03:34:34.736Z,512.6
2019-02-04T03:35:37.174Z,513
2019-02-04T03:36:40.416Z,512.9
2019-02-04T03:37:43.105Z,513
2019-02-04T03:38:44.974Z,513
2019-02-04T03:39:47.422Z,512.8
2019-02-04T03:40:49.915Z,512.6
2019-02-04T03:41:52.070Z,512.6
2019-02-04T03:42:54.495Z,512.9
2019-02-04T03:45:02.090Z,512.4
2019-02-04T03:46:04.521Z,512.3
2019-02-04T03:47:06.944Z,512.4
2019-02-04T03:48:11.614Z,512.7
2019-02-04T03:49:15.271Z,512.5
2019-02-04T03:50:17.665Z,512.2
2019-02-04T03:51:20.107Z,512.2
2019-02-04T03:52:22.628Z,512.1
2019-02-04T03:53:25.050Z,511.8
2019-02-04T03:54:26.922Z,511.3
2019-02-04T03:55:29.355Z,511.7
2019-02-04T03:56:31.784Z,511.2
2019-02-04T03:57:33.934Z,511.1
2019-02-04T03:58:36.099Z,511
2019-02-04T03:59:38.254Z,511
2019-02-04T04:00:41.828Z,511
2019-02-04T04:01:44.484Z,511.3
2019-02-04T04:02:46.902Z,510.7
2019-02-04T04:03:49.322Z,510.7
2019-02-04T04:04:51.764Z,510.7
2019-02-04T04:05:53.918Z,510.9
2019-02-04T04:06:56.070Z,510.8
2019-02-04T04:07:58.202Z,510.6
2019-02-04T04:09:00.639Z,510.6
2019-02-04T04:10:02.506Z,510.3
2019-02-04T04:11:04.645Z,509.9
2019-02-04T04:12:08.218Z,510.1
2019-02-04T04:13:10.953Z,509.9
2019-02-04T04:14:13.435Z,510.1
2019-02-04T04:15:15.656Z,509.6
2019-02-04T04:16:18.086Z,509
2019-02-04T04:17:20.360Z,509.4
2019-02-04T04:18:22.826Z,509.3
2019-02-04T04:19:25.282Z,509
2019-02-04T04:20:26.884Z,508.8
2019-02-04T04:21:29.043Z,509
2019-02-04T04:22:31.586Z,508.9
2019-02-04T04:23:34.851Z,509.4
2019-02-04T04:24:37.004Z,509.3
2019-02-04T04:25:39.166Z,509.1
2019-02-04T04:26:41.610Z,509.1
2019-02-04T04:27:43.549Z,509.3
2019-02-04T04:28:45.974Z,509.1
2019-02-04T04:29:48.144Z,509
2019-02-04T04:30:50.304Z,509.2
2019-02-04T04:31:52.726Z,509
2019-02-04T04:32:55.144Z,509.3
2019-02-04T04:33:57.774Z,509.2
2019-02-04T04:35:01.152Z,509.1
2019-02-04T04:36:03.692Z,509
2019-02-04T04:37:06.122Z,509.5
2019-02-04T04:38:08.264Z,509.6
2019-02-04T04:39:10.414Z,509.4
2019-02-04T04:40:12.567Z,509.2
2019-02-04T04:41:14.718Z,509.3
2019-02-04T04:42:16.876Z,509.4
2019-02-04T04:43:19.311Z,509
2019-02-04T04:44:21.470Z,509.2
2019-02-04T04:45:25.005Z,509.1
2019-02-04T04:46:28.309Z,509.2
2019-02-04T04:47:30.867Z,509.3
2019-02-04T04:48:33.040Z,509.1
2019-02-04T04:49:35.453Z,509.3
2019-02-04T04:50:37.874Z,508.9
2019-02-04T04:51:40.304Z,509.1
2019-02-04T04:52:42.716Z,509
2019-02-04T04:53:45.144Z,508.8
2019-02-04T04:54:47.306Z,508.7
2019-02-04T04:55:49.732Z,508.6
2019-02-04T04:56:52.712Z,508.8
2019-02-04T04:57:55.346Z,508.7
2019-02-04T04:58:58.078Z,508.5
2019-02-04T05:00:00.446Z,508.4
2019-02-04T05:01:02.359Z,508
2019-02-04T05:02:04.780Z,508
2019-02-04T05:03:06.376Z,508.1
2019-02-04T05:04:09.414Z,507.5
2019-02-04T05:05:11.278Z,507.7
2019-02-04T05:06:13.801Z,507.8
2019-02-04T05:07:16.234Z,508
2019-02-04T05:08:19.456Z,507.3
2019-02-04T05:09:22.112Z,507.7
2019-02-04T05:10:24.844Z,507.6
2019-02-04T05:11:27.258Z,507.6
2019-02-04T05:12:29.704Z,507.5
2019-02-04T05:13:32.252Z,507.7
2019-02-04T05:14:34.684Z,507.5
2019-02-04T05:15:37.100Z,507.3
2019-02-04T05:16:39.250Z,507.2
2019-02-04T05:17:41.674Z,507.7
2019-02-04T05:18:44.112Z,507.3
2019-02-04T05:19:47.375Z,507.4
2019-02-04T05:21:56.250Z,507.2
2019-02-04T05:22:58.876Z,506.7
2019-02-04T05:24:01.024Z,506.3
2019-02-04T05:25:03.465Z,506.4
2019-02-04T05:26:05.894Z,506.2
2019-02-04T05:27:07.760Z,506.3
2019-02-04T05:28:09.902Z,505.9
2019-02-04T05:29:12.329Z,505.7
2019-02-04T05:30:14.775Z,505.5
2019-02-04T05:31:17.222Z,505.9
2019-02-04T05:32:20.313Z,506
2019-02-04T05:33:22.850Z,506.1
2019-02-04T05:34:25.483Z,505.1
2019-02-04T05:35:27.641Z,505.6
2019-02-04T05:36:30.063Z,505
2019-02-04T05:37:32.494Z,504.9
2019-02-04T05:38:34.622Z,504.6
2019-02-04T05:39:36.782Z,504
2019-02-04T05:40:39.280Z,504.2
2019-02-04T05:42:47.166Z,503.8
2019-02-04T05:43:49.736Z,503.8
2019-02-04T05:44:53.320Z,503.8
2019-02-04T05:45:56.047Z,504.1
2019-02-04T05:46:58.480Z,503.8
2019-02-04T05:48:00.900Z,503.3
2019-02-04T05:49:03.320Z,503.5
2019-02-04T05:50:05.774Z,503.5
2019-02-04T05:51:08.220Z,503.1
2019-02-04T05:52:10.654Z,502.9
2019-02-04T05:53:13.087Z,503
2019-02-04T05:54:15.233Z,503.1
2019-02-04T05:55:17.672Z,503
2019-02-04T05:56:20.763Z,502.8
2019-02-04T05:57:23.434Z,503.3
2019-02-04T05:58:25.963Z,502.8
2019-02-04T05:59:28.398Z,503
2019-02-04T06:00:30.660Z,502.7
2019-02-04T06:01:33.090Z,502.9
2019-02-04T06:02:35.523Z,503.2
2019-02-04T06:03:37.945Z,502.9
2019-02-04T06:04:40.373Z,503.1
2019-02-04T06:05:42.802Z,503.1
2019-02-04T06:06:45.191Z,503
2019-02-04T06:07:48.764Z,502.7
2019-02-04T06:08:51.013Z,503
2019-02-04T06:09:53.526Z,502.6
2019-02-04T06:10:55.955Z,502.4
2019-02-04T06:11:58.378Z,502.4
2019-02-04T06:13:00.302Z,502
2019-02-04T06:14:02.721Z,502.3
2019-02-04T06:15:05.152Z,502.2
2019-02-04T06:16:07.593Z,501.9
2019-02-04T06:17:09.472Z,501.9
2019-02-04T06:18:12.080Z,501.8
2019-02-04T06:19:15.282Z,501.5
2019-02-04T06:20:17.988Z,501.7
2019-02-04T06:21:20.408Z,501.2
2019-02-04T06:22:22.832Z,501
2019-02-04T06:23:25.263Z,500.8
2019-02-04T06:24:26.867Z,501.2
2019-02-04T06:25:29.304Z,501
2019-02-04T06:26:31.455Z,500.9
2019-02-04T06:27:33.331Z,500.5
2019-02-04T06:28:35.755Z,501
2019-02-04T06:29:38.013Z,500.7
2019-02-04T06:30:39.668Z,500.6
2019-02-04T06:31:42.423Z,500.4
2019-02-04T06:32:44.855Z,500.2
2019-02-04T06:33:47.280Z,499.9
2019-02-04T06:34:49.148Z,500.2
2019-02-04T06:35:51.277Z,499.9
2019-02-04T06:36:53.428Z,500
2019-02-04T06:37:55.592Z,500.1
2019-02-04T06:38:58.042Z,500.2
2019-02-04T06:40:00.338Z,499.9
2019-02-04T06:41:03.862Z,500.2
2019-02-04T06:42:06.504Z,500.8
2019-02-04T06:43:08.932Z,500.2
2019-02-04T06:44:10.800Z,500.3
2019-02-04T06:45:12.958Z,499.8
2019-02-04T06:46:15.392Z,500.1
2019-02-04T06:47:17.730Z,500.2
2019-02-04T06:48:19.671Z,499.6
2019-02-04T06:49:22.145Z,499.6
2019-02-04T06:50:24.048Z,499.3
2019-02-04T06:51:26.484Z,498.9
2019-02-04T06:52:29.679Z,499
2019-02-04T06:53:32.438Z,498.7
2019-02-04T06:54:34.864Z,498.5
2019-02-04T06:55:37.285Z,498.4
2019-02-04T06:56:39.551Z,498.5
2019-02-04T06:57:41.981Z,498.8
2019-02-04T06:58:44.444Z,498.4
2019-02-04T06:59:46.945Z,498.4
2019-02-04T07:00:49.369Z,498.8
2019-02-04T07:01:51.529Z,498.6
2019-02-04T07:02:54.487Z,499
2019-02-04T07:03:57.746Z,498.9
2019-02-04T07:05:00.366Z,499.1
2019-02-04T07:06:02.531Z,499
2019-02-04T07:07:04.705Z,499.1
2019-02-04T07:08:06.699Z,498.7
2019-02-04T07:09:08.870Z,498.9
2019-02-04T07:10:11.321Z,498.8
2019-02-04T07:11:13.511Z,498.5
2019-02-04T07:12:15.659Z,498.3
2019-02-04T07:13:18.116Z,498.4
2019-02-04T07:14:21.690Z,498.2
2019-02-04T07:15:24.106Z,497.9
2019-02-04T07:16:25.969Z,497.5
2019-02-04T07:17:28.413Z,497.5
2019-02-04T07:18:30.947Z,497.3
2019-02-04T07:19:33.098Z,497.7
2019-02-04T07:20:35.523Z,497.5
2019-02-04T07:21:37.398Z,497.4
2019-02-04T07:22:39.830Z,497.5
2019-02-04T07:23:41.738Z,497.6
2019-02-04T07:24:45.141Z,497.9
2019-02-04T07:25:48.757Z,497.3
2019-02-04T07:26:51.152Z,497.3
2019-02-04T07:27:53.293Z,497.6
2019-02-04T07:28:55.505Z,497.3
2019-02-04T07:29:57.948Z,497.6
2019-02-04T07:31:00.375Z,496.7
2019-02-04T07:32:02.532Z,496.5
2019-02-04T07:33:04.969Z,496.3
2019-02-04T07:34:07.146Z,496.5
2019-02-04T07:35:09.296Z,496.3
2019-02-04T07:36:12.612Z,496.5
2019-02-04T07:37:14.902Z,496.5
2019-02-04T07:38:17.009Z,496.5
2019-02-04T07:39:18.873Z,496.9
2019-02-04T07:40:21.295Z,496.8
2019-02-04T07:41:23.718Z,496.9
2019-02-04T07:42:25.874Z,496.7
2019-02-04T07:43:28.299Z,497.2
2019-02-04T07:44:30.436Z,497
2019-02-04T07:45:32.883Z,496.8
2019-02-04T07:46:35.309Z,496.9
2019-02-04T07:47:38.980Z,496.8
2019-02-04T07:48:41.164Z,496.7
2019-02-04T07:49:43.045Z,496.3
2019-02-04T07:50:45.486Z,496.1
2019-02-04T07:51:50.287Z,496.4
2019-02-04T07:52:54.524Z,496.4
2019-02-04T07:53:56.391Z,496.4
2019-02-04T07:54:58.827Z,496.9
2019-02-04T07:56:01.249Z,497.1
2019-02-04T07:57:02.985Z,496.9
2019-02-04T07:58:05.423Z,497.4
2019-02-04T07:59:08.957Z,497
2019-02-04T08:00:10.895Z,497.1
2019-02-04T08:01:13.278Z,497.1
2019-02-04T08:02:15.428Z,497.2
2019-02-04T08:03:17.586Z,497
2019-02-04T08:04:20.017Z,497.4
2019-02-04T08:05:22.557Z,497.4
2019-02-04T08:06:24.427Z,497.7
2019-02-04T08:07:26.693Z,497.5
2019-02-04T08:08:28.854Z,497.7
2019-02-04T08:09:31.277Z,497.6
2019-02-04T08:10:35.061Z,497.7
2019-02-04T08:11:37.937Z,497.7
2019-02-04T08:12:40.095Z,497.5
2019-02-04T08:13:41.973Z,497.8
2019-02-04T08:15:49.437Z,497.7
2019-02-04T08:16:51.575Z,498
2019-02-04T08:17:53.719Z,498.3
2019-02-04T08:18:56.146Z,498
2019-02-04T08:19:58.583Z,497.9
2019-02-04T08:21:00.717Z,498.4
2019-02-04T08:22:04.249Z,497.8
2019-02-04T08:23:06.905Z,498.1
2019-02-04T08:24:09.334Z,498.1
2019-02-04T08:25:12.384Z,499.1
2019-02-04T08:26:14.814Z,498.6
2019-02-04T08:27:16.966Z,498.5
2019-02-04T08:28:19.126Z,498.7
2019-02-04T08:29:21.551Z,498.2
2019-02-04T08:30:23.155Z,498.8
2019-02-04T08:31:25.684Z,498.6
2019-02-04T08:32:28.131Z,498.8
2019-02-04T08:33:31.487Z,498.7
2019-02-04T08:34:34.174Z,498.9
2019-02-04T08:35:36.617Z,498.5
2019-02-04T08:37:44.023Z,498.3
2019-02-04T08:38:45.916Z,498.4
2019-02-04T08:39:48.063Z,498.9
2019-02-04T08:40:50.214Z,498.5
2019-02-04T08:41:52.354Z,499.1
2019-02-04T08:42:54.784Z,498.6
2019-02-04T08:43:57.233Z,498.4
2019-02-04T08:45:00.464Z,498.4
2019-02-04T08:46:03.169Z,498.3
2019-02-04T08:47:05.321Z,498.5
2019-02-04T08:48:07.517Z,498.2
2019-02-04T08:49:09.683Z,498.1
2019-02-04T08:50:11.854Z,498.6
2019-02-04T08:51:14.001Z,498.4
2019-02-04T08:52:16.443Z,498.3
2019-02-04T08:53:18.148Z,498
2019-02-04T08:54:20.851Z,498.2
2019-02-04T08:55:24.306Z,498.2
2019-02-04T08:56:26.779Z,497.9
2019-02-04T08:57:28.757Z,497.9
2019-02-04T08:58:30.647Z,498
2019-02-04T08:59:33.091Z,497.6
2019-02-04T09:00:35.261Z,497.6
2019-02-04T09:01:37.687Z,497.9
2019-02-04T09:02:40.110Z,497.6
2019-02-04T09:03:42.271Z,497.7
2019-02-04T09:04:44.710Z,497.6
2019-02-04T09:05:48.559Z,497.7
2019-02-04T09:06:50.715Z,496.6
2019-02-04T09:07:53.159Z,497.1
2019-02-04T09:08:55.630Z,496.9
2019-02-04T09:09:57.495Z,496.8
2019-02-04T09:10:59.924Z,496.9
2019-02-04T09:12:02.408Z,496.6
2019-02-04T09:13:04.689Z,496.7
2019-02-04T09:14:07.115Z,496.2
2019-02-04T09:15:09.539Z,496.6
2019-02-04T09:16:12.211Z,496.5
2019-02-04T09:17:14.145Z,496.6
2019-02-04T09:18:16.290Z,496.6
2019-02-04T09:19:18.713Z,496.6
2019-02-04T09:20:21.149Z,496.8
2019-02-04T09:21:23.304Z,496.9
2019-02-04T09:22:25.749Z,496.9
2019-02-04T09:23:28.175Z,496.7
2019-02-04T09:24:30.604Z,496.6
2019-02-04T09:25:33.033Z,496.3
2019-02-04T09:26:35.709Z,496.2
2019-02-04T09:27:39.014Z,495.8
2019-02-04T09:28:41.283Z,496.1
2019-02-04T09:29:43.471Z,496
2019-02-04T09:30:45.355Z,496.3
2019-02-04T09:31:47.231Z,496
2019-02-04T09:32:49.668Z,496.1
2019-02-04T09:33:52.103Z,496.3
2019-02-04T09:34:54.545Z,496.2
2019-02-04T09:35:56.708Z,496.9
2019-02-04T09:36:59.249Z,496
2019-02-04T09:38:03.046Z,496.4
2019-02-04T09:39:05.460Z,496.6
2019-02-04T09:40:07.350Z,496.8
2019-02-04T09:41:08.712Z,496.8
2019-02-04T09:42:11.155Z,496.9
2019-02-04T09:43:13.299Z,496.8
2019-02-04T09:44:15.463Z,496.8
2019-02-04T09:45:17.891Z,497.2
2019-02-04T09:46:19.490Z,496.7
2019-02-04T09:47:21.628Z,496.8
2019-02-04T09:48:24.965Z,496.2
2019-02-04T09:49:27.381Z,496.3
2019-02-04T09:51:36.253Z,496
2019-02-04T09:52:38.421Z,496.6
2019-02-04T09:53:40.851Z,496.4
2019-02-04T09:54:43.062Z,496.4
2019-02-04T09:55:45.233Z,496.4
2019-02-04T09:56:47.401Z,496.4
2019-02-04T09:57:49.882Z,496.8
2019-02-04T09:58:52.313Z,496.8
2019-02-04T09:59:56.347Z,497.2
2019-02-04T10:00:59.445Z,497.4
2019-02-04T10:02:02.173Z,497.1
2019-02-04T10:03:04.603Z,497.4
2019-02-04T10:04:07.040Z,497.4
2019-02-04T10:05:09.474Z,497.7
2019-02-04T10:06:11.907Z,497.9
2019-02-04T10:07:14.331Z,498.1
2019-02-04T10:08:16.749Z,498.1
2019-02-04T10:09:19.193Z,498.5
2019-02-04T10:10:21.624Z,498.3
2019-02-04T10:11:24.081Z,498.4
2019-02-04T10:12:26.762Z,498.3
2019-02-04T10:13:29.522Z,498.5
2019-02-04T10:14:31.672Z,498.7
2019-02-04T10:15:34.214Z,499
2019-02-04T10:16:36.429Z,499.6
2019-02-04T10:17:38.690Z,500.1
2019-02-04T10:18:41.206Z,500.2
2019-02-04T10:19:43.108Z,500.2
2019-02-04T10:20:45.788Z,500.6
2019-02-04T10:21:48.358Z,500.5
2019-02-04T10:22:51.002Z,500.5
2019-02-04T10:23:54.546Z,500.7
2019-02-04T10:24:57.154Z,500.4
2019-02-04T10:25:59.659Z,500.4
2019-02-04T10:27:02.183Z,500.6
2019-02-04T10:28:04.448Z,500.2
2019-02-04T10:29:06.908Z,500.2
2019-02-04T10:30:09.143Z,500
2019-02-04T10:31:11.706Z,500.1
2019-02-04T10:32:14.223Z,500.3
2019-02-04T10:33:16.729Z,500
2019-02-04T10:34:18.971Z,500.6
2019-02-04T10:35:22.301Z,500.7
2019-02-04T10:36:25.195Z,501
2019-02-04T10:37:27.759Z,501.2
2019-02-04T10:38:30.277Z,501.4
2019-02-04T10:39:32.971Z,501.7
2019-02-04T10:40:35.603Z,501.8
2019-02-04T10:41:38.118Z,502
2019-02-04T10:42:40.588Z,502.3
2019-02-04T10:43:43.247Z,502.1
2019-02-04T10:44:45.736Z,502.6
2019-02-04T10:45:48.284Z,502.9
2019-02-04T10:46:51.742Z,502.8
2019-02-04T10:47:54.918Z,503.1
2019-02-04T10:48:57.794Z,503.4
2019-02-04T10:50:00.252Z,503.5
2019-02-04T10:51:02.290Z,503.4
2019-02-04T10:52:04.362Z,503.6
2019-02-04T10:53:06.301Z,502.9
2019-02-04T10:54:08.866Z,503.6
2019-02-04T10:55:11.086Z,503.5
2019-02-04T10:56:16.222Z,503.7
2019-02-04T10:57:20.138Z,503.7
2019-02-04T10:58:23.090Z,504.1
2019-02-04T10:59:26.420Z,504.3
2019-02-04T11:00:29.234Z,504.2
2019-02-04T11:01:31.430Z,504.3
2019-02-04T11:02:34.003Z,504.2
2019-02-04T11:03:36.477Z,504.2
2019-02-04T11:04:39.096Z,504.2
2019-02-04T11:05:41.388Z,504.5
2019-02-04T11:06:43.678Z,504.5
2019-02-04T11:07:46.266Z,504.3
2019-02-04T11:08:48.824Z,504.4
2019-02-04T11:09:51.582Z,504.7
2019-02-04T11:10:54.686Z,503.9
2019-02-04T11:11:57.380Z,504.4
2019-02-04T11:12:59.597Z,504.4
2019-02-04T11:14:02.193Z,504.8
2019-02-04T11:15:04.684Z,504.3
2019-02-04T11:16:07.038Z,504.9
2019-02-04T11:17:09.681Z,504.3
2019-02-04T11:18:12.232Z,504.6
2019-02-04T11:19:14.410Z,504.4
2019-02-04T11:20:16.934Z,504.4
2019-02-04T11:21:19.683Z,504.9
2019-02-04T11:22:23.471Z,504.8
2019-02-04T11:23:28.993Z,504.8
2019-02-04T11:24:32.965Z,505.1
2019-02-04T11:25:35.502Z,504.9
2019-02-04T11:26:38.019Z,505
2019-02-04T11:27:40.476Z,505.2
2019-02-04T11:28:42.957Z,505.5
2019-02-04T11:29:44.989Z,505.5
2019-02-04T11:30:47.532Z,505.7
2019-02-04T11:31:49.996Z,505.8
2019-02-04T11:32:52.472Z,506.1
2019-02-04T11:33:55.113Z,505.8
2019-02-04T11:34:58.646Z,505.5
2019-02-04T11:36:01.495Z,505.5
2019-02-04T11:37:04.000Z,505.9
2019-02-04T11:38:06.522Z,506.2
2019-02-04T11:39:09.074Z,505.9
2019-02-04T11:40:11.367Z,506.5
2019-02-04T11:41:14.024Z,506.9
2019-02-04T11:42:16.292Z,506.8
2019-02-04T11:43:18.624Z,506.9
2019-02-04T11:44:21.195Z,507.3
2019-02-04T11:45:24.129Z,506.9
2019-02-04T11:46:27.435Z,506.9
2019-02-04T11:47:30.316Z,507.2
2019-02-04T11:48:33.014Z,507.2
2019-02-04T11:49:35.167Z,507.4
2019-02-04T11:50:37.322Z,507.4
2019-02-04T11:51:39.210Z,507.2
2019-02-04T11:52:41.628Z,507.7
2019-02-04T11:53:44.060Z,507.2
2019-02-04T11:54:46.478Z,507.1
2019-02-04T11:55:48.903Z,507.2
2019-02-04T11:56:51.335Z,507.6
2019-02-04T11:57:54.334Z,507.6
2019-02-04T11:58:57.001Z,507.2
2019-02-04T11:59:59.167Z,508.1
2019-02-04T12:01:01.326Z,508.3
2019-02-04T12:02:03.844Z,507.9
2019-02-04T12:03:06.006Z,508.4
2019-02-04T12:04:08.443Z,508.6
2019-02-04T12:05:10.928Z,508.6
2019-02-04T12:06:13.084Z,508.8
2019-02-04T12:07:15.254Z,509.4
2019-02-04T12:08:17.993Z,508.9
2019-02-04T12:09:20.658Z,509.1
2019-02-04T12:10:23.394Z,509.3
2019-02-04T12:11:25.534Z,509.4
2019-02-04T12:12:27.416Z,509.5
2019-02-04T12:13:29.846Z,509.6
2019-02-04T12:14:32.260Z,509.7
2019-02-04T12:15:34.423Z,509.4
2019-02-04T12:16:36.858Z,509.7
2019-02-04T12:17:39.314Z,509.4
2019-02-04T12:18:41.757Z,509.9
2019-02-04T12:19:44.933Z,509.6
2019-02-04T12:20:47.462Z,509.5
2019-02-04T12:21:49.616Z,509.6
2019-02-04T12:22:52.050Z,510.1
2019-02-04T12:23:54.204Z,509.9
2019-02-04T12:24:56.644Z,510
2019-02-04T12:25:59.068Z,509.7
2019-02-04T12:27:01.246Z,510
2019-02-04T12:28:03.374Z,510.5
2019-02-04T12:29:05.808Z,510.2
2019-02-04T12:30:08.240Z,510.1
2019-02-04T12:31:11.882Z,509.7
2019-02-04T12:32:14.289Z,510.1
2019-02-04T12:33:16.212Z,509.4
2019-02-04T12:34:18.634Z,509.5
2019-02-04T12:35:21.089Z,509.6
2019-02-04T12:36:23.735Z,508.8
2019-02-04T12:37:26.200Z,509.3
2019-02-04T12:38:28.636Z,509.5
2019-02-04T12:39:30.784Z,509.2
2019-02-04T12:40:33.212Z,509.7
2019-02-04T12:41:36.008Z,509.7
2019-02-04T12:42:39.348Z,509.7
2019-02-04T12:43:42.186Z,510
2019-02-04T12:44:44.347Z,509.5
2019-02-04T12:45:46.508Z,509.8
2019-02-04T12:46:48.382Z,510
2019-02-04T12:47:50.550Z,509.9
2019-02-04T12:48:52.982Z,509.5
2019-02-04T12:49:55.433Z,509.7
2019-02-04T12:50:57.584Z,509.9
2019-02-04T12:52:00.041Z,509.7
2019-02-04T12:53:03.582Z,510
2019-02-04T12:54:06.259Z,509.9
2019-02-04T12:55:08.948Z,510.4
2019-02-04T12:56:11.372Z,510.4
2019-02-04T12:57:13.803Z,510.6
2019-02-04T12:58:16.240Z,510.2
2019-02-04T12:59:18.677Z,510.2
2019-02-04T13:00:21.112Z,510.5
2019-02-04T13:01:22.989Z,510.2
2019-02-04T13:02:25.137Z,510.4
2019-02-04T13:03:27.587Z,510.3
2019-02-04T13:04:31.042Z,510
2019-02-04T13:05:33.701Z,510.2
2019-02-04T13:06:36.321Z,509.9
2019-02-04T13:07:38.484Z,510
2019-02-04T13:08:40.927Z,510.1
2019-02-04T13:09:43.105Z,510.1
2019-02-04T13:10:44.999Z,510.1
2019-02-04T13:11:47.483Z,510.6
2019-02-04T13:12:50.063Z,510.4
2019-02-04T13:13:52.206Z,510.8
2019-02-04T13:14:54.656Z,510.7
2019-02-04T13:15:58.162Z,510.9
2019-02-04T13:17:00.800Z,510.2
2019-02-04T13:18:03.254Z,510.4
2019-02-04T13:19:05.121Z,510.6
2019-02-04T13:20:07.600Z,510.5
2019-02-04T13:21:10.037Z,510.7
2019-02-04T13:22:12.464Z,510.8
2019-02-04T13:23:14.907Z,510.9
2019-02-04T13:24:17.331Z,510.9
2019-02-04T13:25:19.767Z,511.2
2019-02-04T13:26:22.198Z,510.9
2019-02-04T13:27:25.404Z,511.2
2019-02-04T13:28:28.156Z,511.3
2019-02-04T13:29:30.326Z,511.2
2019-02-04T13:30:32.785Z,511.9
2019-02-04T13:31:35.031Z,512.1
2019-02-04T13:32:37.196Z,511.9
2019-02-04T13:33:39.625Z,512.2
2019-02-04T13:34:42.083Z,512.3
2019-02-04T13:35:44.238Z,512.3